createdAt,value
2019-04-21T00:00:20.654Z,5.67
2019-04-21T00:03:23.001Z,6.28
2019-04-21T00:06:22.375Z,5.70
2019-04-21T00:09:37.748Z,5.30
2019-04-21T00:12:13.983Z,5.80
2019-04-21T00:15:12.432Z,5.58
2019-04-21T00:17:51.760Z,5.60
2019-04-21T00:20:48.972Z,5.37
2019-04-21T00:23:38.854Z,5.20
2019-04-21T00:26:31.476Z,5.37
2019-04-21T00:29:16.505Z,5.50
2019-04-21T00:31:56.318Z,5.03
2019-04-21T00:34:09.073Z,5.20
2019-04-21T00:36:47.287Z,5.92
2019-04-21T00:39:41.572Z,5.50
2019-04-21T00:41:59.206Z,5.42
2019-04-21T00:44:23.633Z,5.47
2019-04-21T00:46:58.834Z,5.30
2019-04-21T00:49:31.142Z,5.30
2019-04-21T00:55:42.259Z,5.33
2019-04-21T00:58:03.727Z,5.30
2019-04-21T01:00:32.420Z,5.85
2019-04-21T01:03:06.687Z,5.40
2019-04-21T01:05:35.241Z,5.00
2019-04-21T01:07:58.250Z,5.40
2019-04-21T01:10:27.121Z,5.40
2019-04-21T01:13:02.662Z,5.73
2019-04-21T01:15:37.123Z,5.45
2019-04-21T01:18:07.721Z,5.77
2019-04-21T01:20:17.238Z,5.70
2019-04-21T01:22:40.633Z,5.40
2019-04-21T01:25:20.374Z,5.70
2019-04-21T01:27:57.485Z,6.00
2019-04-21T01:30:29.698Z,5.62
2019-04-21T01:33:00.097Z,5.70
2019-04-21T01:35:34.668Z,5.50
2019-04-21T01:38:01.860Z,5.50
2019-04-21T01:40:40.853Z,5.90
2019-04-21T01:43:03.574Z,5.58
2019-04-21T01:45:31.674Z,5.57
2019-04-21T01:48:01.608Z,5.80
2019-04-21T01:50:29.968Z,5.60
2019-04-21T01:53:11.575Z,5.70
2019-04-21T01:56:03.386Z,5.75
2019-04-21T01:58:29.175Z,5.70
2019-04-21T02:01:05.757Z,5.50
2019-04-21T02:06:18.480Z,5.85
2019-04-21T02:08:36.428Z,6.10
2019-04-21T02:13:50.309Z,5.40
2019-04-21T02:16:12.438Z,5.43
2019-04-21T02:18:39.129Z,5.90
2019-04-21T02:21:00.382Z,5.50
2019-04-21T02:23:46.395Z,5.70
2019-04-21T02:26:09.801Z,5.30
2019-04-21T02:31:20.398Z,5.80
2019-04-21T02:33:57.452Z,5.47
2019-04-21T02:36:30.850Z,5.70
2019-04-21T02:41:22.875Z,5.65
2019-04-21T02:43:54.039Z,5.75
2019-04-21T02:46:23.690Z,5.67
2019-04-21T02:48:57.479Z,5.62
2019-04-21T02:51:31.990Z,5.70
2019-04-21T02:54:06.142Z,6.25
2019-04-21T02:56:30.905Z,5.73
2019-04-21T02:59:06.732Z,6.15
2019-04-21T03:02:17.057Z,6.10
2019-04-21T03:04:34.872Z,6.00
2019-04-21T03:09:49.675Z,5.78
2019-04-21T03:12:22.568Z,6.20
2019-04-21T03:15:11.418Z,6.00
2019-04-21T03:17:35.849Z,5.90
2019-04-21T03:20:02.987Z,6.25
2019-04-21T03:22:24.787Z,6.00
2019-04-21T03:37:32.955Z,5.50
2019-04-21T03:40:01.403Z,6.10
2019-04-21T03:45:12.638Z,5.97
2019-04-21T03:47:30.905Z,6.28
2019-04-21T03:52:29.971Z,6.60
2019-04-21T03:55:41.562Z,6.30
2019-04-21T03:57:55.459Z,6.33
2019-04-21T04:00:21.624Z,6.78
2019-04-21T04:08:52.534Z,6.05
2019-04-21T04:11:24.802Z,6.30
2019-04-21T04:16:20.217Z,6.08
2019-04-21T04:23:45.282Z,5.70
2019-04-21T04:26:13.033Z,5.10
2019-04-21T04:33:51.886Z,5.40
2019-04-21T04:38:52.025Z,5.42
2019-04-21T04:41:30.425Z,4.87
2019-04-21T04:43:54.591Z,6.35
2019-04-21T04:46:29.325Z,7.50
2019-04-21T04:49:02.406Z,6.30
2019-04-21T04:51:36.711Z,6.20
2019-04-21T04:53:47.404Z,5.58
2019-04-21T04:56:40.516Z,5.20
2019-04-21T04:59:19.811Z,5.10
2019-04-21T05:01:34.893Z,5.20
2019-04-21T05:04:09.379Z,5.20
2019-04-21T05:16:44.670Z,5.20
2019-04-21T05:23:48.452Z,4.80
2019-04-21T05:26:14.349Z,5.65
2019-04-21T05:28:40.876Z,5.42
2019-04-21T05:31:34.410Z,5.30
2019-04-21T05:34:07.534Z,5.17
2019-04-21T05:36:56.723Z,5.45
2019-04-21T05:39:36.128Z,4.90
2019-04-21T05:41:54.178Z,5.50
2019-04-21T05:44:43.873Z,5.30
2019-04-21T05:47:20.775Z,5.25
2019-04-21T05:49:45.615Z,5.10
2019-04-21T05:52:14.366Z,4.90
2019-04-21T05:57:14.679Z,5.10
2019-04-21T05:59:49.188Z,5.25
2019-04-21T06:02:22.228Z,5.70
2019-04-21T06:07:26.097Z,5.53
2019-04-21T06:09:58.650Z,5.80
2019-04-21T06:12:25.325Z,5.50
2019-04-21T06:14:59.106Z,5.72
2019-04-21T06:17:32.898Z,5.95
2019-04-21T06:19:57.272Z,5.30
2019-04-21T06:22:19.170Z,5.70
2019-04-21T06:25:21.595Z,5.00
2019-04-21T06:27:27.480Z,5.40
2019-04-21T06:29:55.768Z,5.30
2019-04-21T06:40:11.824Z,5.12
2019-04-21T06:42:25.745Z,5.25
2019-04-21T06:44:57.519Z,5.10
2019-04-21T06:47:36.161Z,5.10
2019-04-21T06:49:56.795Z,5.30
2019-04-21T06:52:46.507Z,5.25
2019-04-21T06:55:03.346Z,4.90
2019-04-21T06:57:29.429Z,5.20
2019-04-21T06:59:55.740Z,5.10
2019-04-21T07:02:50.734Z,5.30
2019-04-21T07:05:03.988Z,5.12
2019-04-21T07:07:28.124Z,5.20
2019-04-21T07:10:04.589Z,5.22
2019-04-21T07:12:30.368Z,4.70
2019-04-21T07:14:58.950Z,5.30
2019-04-21T07:17:28.175Z,5.10
2019-04-21T07:20:00.178Z,5.23
2019-04-21T07:22:30.232Z,5.22
2019-04-21T07:25:02.730Z,5.53
2019-04-21T07:30:06.261Z,5.00
2019-04-21T07:32:41.151Z,4.92
2019-04-21T07:35:03.714Z,5.00
2019-04-21T07:37:31.640Z,5.30
2019-04-21T07:39:57.266Z,5.30
2019-04-21T07:42:23.769Z,5.70
2019-04-21T07:44:56.738Z,5.53
2019-04-21T07:47:35.948Z,5.15
2019-04-21T07:50:28.612Z,5.70
2019-04-21T07:53:05.069Z,5.20
2019-04-21T07:57:52.665Z,5.10
2019-04-21T08:00:29.378Z,5.00
2019-04-21T08:02:53.978Z,5.10
2019-04-21T08:05:26.496Z,5.10
2019-04-21T08:08:01.493Z,5.90
2019-04-21T08:10:27.309Z,5.30
2019-04-21T08:12:54.343Z,5.03
2019-04-21T08:15:30.952Z,4.60
2019-04-21T08:17:53.588Z,4.70
2019-04-21T08:20:24.641Z,5.10
2019-04-21T08:22:58.873Z,4.40
2019-04-21T08:25:27.706Z,5.10
2019-04-21T08:28:01.444Z,5.10
2019-04-21T08:30:30.539Z,5.00
2019-04-21T08:36:01.135Z,5.50
2019-04-21T08:37:57.416Z,4.87
2019-04-21T08:40:33.195Z,5.00
2019-04-21T08:42:55.258Z,4.37
2019-04-21T08:47:58.218Z,4.50
2019-04-21T08:50:25.642Z,5.08
2019-04-21T08:53:04.006Z,4.60
2019-04-21T08:56:04.477Z,4.40
2019-04-21T08:58:56.175Z,4.30
2019-04-21T09:01:39.834Z,4.60
2019-04-21T09:04:17.192Z,4.30
2019-04-21T09:06:55.576Z,4.33
2019-04-21T09:09:11.802Z,4.05
2019-04-21T09:11:46.152Z,3.80
2019-04-21T09:14:11.526Z,3.80
2019-04-21T09:16:35.536Z,3.77
2019-04-21T09:19:12.909Z,3.70
2019-04-21T09:21:43.588Z,3.53
2019-04-21T09:24:13.055Z,3.20
2019-04-21T09:26:40.656Z,3.45
2019-04-21T09:29:08.059Z,3.40
2019-04-21T09:31:31.978Z,3.30
2019-04-21T09:34:00.302Z,3.60
2019-04-21T09:36:35.052Z,3.87
2019-04-21T09:39:05.511Z,3.58
2019-04-21T09:41:27.687Z,4.00
2019-04-21T09:43:57.910Z,3.80
2019-04-21T09:46:29.896Z,3.58
2019-04-21T09:49:05.146Z,3.60
2019-04-21T09:51:30.589Z,3.50
2019-04-21T09:54:05.844Z,3.60
2019-04-21T09:56:47.326Z,3.40
2019-04-21T09:59:23.722Z,3.42
2019-04-21T10:02:09.578Z,4.00
2019-04-21T10:04:33.584Z,4.03
2019-04-21T10:07:08.975Z,3.80
2019-04-21T10:09:37.696Z,3.47
2019-04-21T10:12:09.820Z,4.08
2019-04-21T10:14:39.170Z,3.35
2019-04-21T10:17:37.510Z,3.60
2019-04-21T10:20:09.348Z,3.52
2019-04-21T10:22:39.227Z,3.27
2019-04-21T10:25:10.297Z,3.15
2019-04-21T10:27:41.118Z,3.30
2019-04-21T10:30:10.172Z,3.58
2019-04-21T10:32:40.605Z,3.50
2019-04-21T10:35:11.359Z,3.20
2019-04-21T10:37:52.692Z,3.70
2019-04-21T10:40:09.900Z,3.60
2019-04-21T10:42:38.886Z,3.40
2019-04-21T10:45:07.658Z,3.30
2019-04-21T10:47:36.873Z,3.60
2019-04-21T10:50:06.713Z,3.72
2019-04-21T10:52:53.346Z,3.70
2019-04-21T10:55:40.255Z,3.40
2019-04-21T10:58:11.925Z,3.20
2019-04-21T11:00:48.481Z,3.22
2019-04-21T11:03:44.778Z,3.50
2019-04-21T11:06:28.760Z,3.40
2019-04-21T11:09:07.302Z,3.80
2019-04-21T11:11:37.902Z,3.60
2019-04-21T11:14:21.433Z,3.60
2019-04-21T11:17:07.927Z,4.30
2019-04-21T11:19:38.946Z,3.92
2019-04-21T11:22:07.214Z,4.70
2019-04-21T11:24:36.703Z,3.50
2019-04-21T11:27:06.725Z,4.12
2019-04-21T11:29:35.138Z,3.95
2019-04-21T11:32:03.396Z,3.63
2019-04-21T11:34:41.306Z,4.05
2019-04-21T11:37:12.313Z,3.70
2019-04-21T11:39:51.167Z,3.22
2019-04-21T11:42:19.502Z,3.80
2019-04-21T11:44:48.960Z,2.80
2019-04-21T11:47:25.754Z,3.10
2019-04-21T11:49:54.863Z,3.33
2019-04-21T11:52:22.906Z,3.50
2019-04-21T11:54:53.136Z,3.50
2019-04-21T11:57:27.617Z,3.42
2019-04-21T11:59:51.594Z,3.25
2019-04-21T12:02:21.490Z,3.40
2019-04-21T12:04:49.597Z,3.60
2019-04-21T12:07:17.630Z,3.50
2019-04-21T12:09:45.822Z,3.20
2019-04-21T12:12:14.988Z,3.10
2019-04-21T12:14:43.921Z,3.05
2019-04-21T12:17:12.150Z,2.90
2019-04-21T12:19:40.904Z,2.80
2019-04-21T12:22:18.232Z,2.90
2019-04-21T12:24:39.712Z,3.15
2019-04-21T12:27:07.922Z,3.20
2019-04-21T12:29:37.709Z,2.92
2019-04-21T12:32:26.241Z,3.10
2019-04-21T12:34:55.341Z,3.12
2019-04-21T12:37:24.665Z,3.10
2019-04-21T12:39:52.775Z,3.50
2019-04-21T12:42:20.835Z,3.00
2019-04-21T12:44:49.512Z,3.00
2019-04-21T12:47:17.526Z,3.27
2019-04-21T12:49:45.685Z,2.75
2019-04-21T12:52:13.792Z,2.87
2019-04-21T12:54:41.881Z,2.90
2019-04-21T12:57:09.898Z,3.05
2019-04-21T12:59:39.519Z,3.00
2019-04-21T13:02:07.643Z,3.00
2019-04-21T13:04:35.887Z,2.90
2019-04-21T13:07:03.872Z,3.10
2019-04-21T13:09:32.483Z,2.90
2019-04-21T13:12:01.520Z,2.90
2019-04-21T13:14:31.561Z,2.70
2019-04-21T13:16:59.654Z,3.20
2019-04-21T13:19:29.349Z,3.00
2019-04-21T13:21:58.255Z,3.10
2019-04-21T13:24:26.651Z,2.67
2019-04-21T13:26:58.439Z,2.70
2019-04-21T13:29:26.002Z,3.10
2019-04-21T13:31:54.295Z,2.90
2019-04-21T13:34:24.052Z,2.62
2019-04-21T13:36:53.966Z,2.60
2019-04-21T13:40:09.531Z,3.00
2019-04-21T13:42:21.865Z,2.80
2019-04-21T13:44:42.234Z,2.80
2019-04-21T13:47:12.502Z,2.50
2019-04-21T13:49:41.485Z,16.32
2019-04-21T13:52:10.681Z,6.33
2019-04-21T13:54:39.882Z,3.10
2019-04-21T13:57:08.400Z,3.22
2019-04-21T13:59:38.497Z,2.67
2019-04-21T14:02:06.887Z,2.87
2019-04-21T14:04:35.643Z,3.17
2019-04-21T14:07:04.081Z,2.90
2019-04-21T14:09:40.304Z,2.60
2019-04-21T14:12:01.722Z,2.57
2019-04-21T14:14:30.384Z,2.58
2019-04-21T14:17:00.412Z,2.60
2019-04-21T14:19:28.793Z,2.60
2019-04-21T14:21:57.113Z,2.58
2019-04-21T14:24:26.700Z,2.80
2019-04-21T14:26:56.196Z,2.62
2019-04-21T14:29:25.660Z,2.50
2019-04-21T14:31:53.750Z,2.50
2019-04-21T14:34:22.001Z,2.55
2019-04-21T14:36:50.792Z,2.45
2019-04-21T14:39:18.889Z,2.50
2019-04-21T14:41:48.251Z,2.40
2019-04-21T14:44:16.313Z,2.60
2019-04-21T14:47:03.002Z,2.50
2019-04-21T14:49:41.593Z,4.60
2019-04-21T14:52:28.885Z,9.78
2019-04-21T14:55:14.509Z,2.90
2019-04-21T14:57:43.204Z,2.60
2019-04-21T15:00:13.269Z,2.50
2019-04-21T15:02:41.630Z,2.30
2019-04-21T15:05:11.477Z,2.40
2019-04-21T15:07:39.811Z,2.20
2019-04-21T15:10:15.351Z,2.30
2019-04-21T15:12:39.390Z,2.50
2019-04-21T15:15:07.777Z,2.50
2019-04-21T15:17:36.070Z,2.50
2019-04-21T15:20:10.185Z,2.30
2019-04-21T15:22:34.568Z,2.37
2019-04-21T15:25:02.934Z,2.50
2019-04-21T15:27:30.927Z,2.33
2019-04-21T15:29:58.960Z,2.40
2019-04-21T15:32:28.353Z,2.50
2019-04-21T15:34:57.954Z,2.40
2019-04-21T15:37:28.180Z,2.30
2019-04-21T15:39:56.562Z,2.20
2019-04-21T15:42:24.510Z,2.40
2019-04-21T15:44:54.655Z,2.30
2019-04-21T15:47:23.942Z,2.40
2019-04-21T15:50:03.617Z,2.12
2019-04-21T15:52:28.133Z,2.10
2019-04-21T15:55:08.391Z,2.40
2019-04-21T15:58:07.729Z,2.40
2019-04-21T16:00:42.805Z,2.50
2019-04-21T16:03:10.957Z,9.38
2019-04-21T16:05:40.592Z,8.93
2019-04-21T16:08:10.125Z,8.38
2019-04-21T16:10:45.339Z,6.35
2019-04-21T16:13:09.691Z,3.75
2019-04-21T16:15:39.016Z,3.33
2019-04-21T16:18:07.393Z,2.72
2019-04-21T16:20:35.543Z,2.60
2019-04-21T16:23:04.566Z,2.90
2019-04-21T16:25:32.848Z,5.10
2019-04-21T16:28:01.677Z,4.87
2019-04-21T16:30:30.920Z,7.70
2019-04-21T16:32:59.940Z,5.10
2019-04-21T16:35:29.590Z,4.83
2019-04-21T16:37:59.488Z,6.95
2019-04-21T16:40:34.754Z,9.15
2019-04-21T16:42:58.362Z,9.55
2019-04-21T16:45:26.794Z,5.12
2019-04-21T16:47:55.652Z,5.40
2019-04-21T16:50:25.758Z,5.50
2019-04-21T16:52:58.164Z,5.83
2019-04-21T16:55:53.178Z,12.58
2019-04-21T16:58:40.947Z,7.37
2019-04-21T17:01:16.223Z,6.57
2019-04-21T17:03:42.470Z,6.10
2019-04-21T17:06:11.198Z,6.30
2019-04-21T17:08:40.953Z,7.00
2019-04-21T17:11:17.308Z,5.67
2019-04-21T17:13:39.805Z,5.60
2019-04-21T17:16:38.696Z,5.90
2019-04-21T17:18:51.333Z,10.43
2019-04-21T17:21:09.238Z,5.40
2019-04-21T17:23:38.312Z,5.28
2019-04-21T17:26:06.292Z,5.50
2019-04-21T17:28:34.556Z,6.30
2019-04-21T17:31:02.586Z,5.80
2019-04-21T17:33:31.965Z,5.60
2019-04-21T17:36:00.781Z,6.22
2019-04-21T17:38:30.067Z,7.57
2019-04-21T17:41:09.334Z,6.42
2019-04-21T17:43:29.848Z,6.20
2019-04-21T17:45:59.316Z,6.67
2019-04-21T17:48:29.275Z,5.83
2019-04-21T17:51:11.835Z,5.67
2019-04-21T17:53:49.494Z,5.60
2019-04-21T17:56:41.802Z,5.40
2019-04-21T17:59:04.408Z,5.42
2019-04-21T18:01:37.270Z,5.10
2019-04-21T18:04:10.810Z,4.70
2019-04-21T18:06:36.887Z,4.85
2019-04-21T18:09:08.894Z,5.00
2019-04-21T18:11:39.566Z,4.97
2019-04-21T18:13:47.268Z,6.50
2019-04-21T18:16:25.303Z,7.85
2019-04-21T18:18:46.638Z,10.13
2019-04-21T18:21:22.832Z,6.33
2019-04-21T18:24:04.965Z,5.33
2019-04-21T18:26:34.736Z,5.70
2019-04-21T18:28:55.245Z,5.00
2019-04-21T18:31:22.935Z,4.70
2019-04-21T18:34:11.043Z,5.30
2019-04-21T18:36:45.447Z,5.10
2019-04-21T18:39:46.371Z,5.58
2019-04-21T18:42:42.123Z,4.30
2019-04-21T18:45:56.453Z,4.70
2019-04-21T18:48:19.221Z,4.70
2019-04-21T18:50:50.978Z,5.50
2019-04-21T18:53:40.081Z,10.93
2019-04-21T18:55:55.794Z,9.38
2019-04-21T18:58:18.076Z,9.00
2019-04-21T19:00:46.514Z,14.43
2019-04-21T19:03:20.895Z,14.87
2019-04-21T19:05:50.232Z,15.65
2019-04-21T19:08:31.500Z,17.37
2019-04-21T19:11:08.243Z,16.67
2019-04-21T19:13:44.172Z,14.30
2019-04-21T19:18:56.458Z,14.13
2019-04-21T19:21:02.997Z,17.73
2019-04-21T19:23:45.697Z,16.57
2019-04-21T19:26:16.134Z,15.23
2019-04-21T19:28:41.929Z,15.03
2019-04-21T19:31:11.065Z,16.85
2019-04-21T19:33:30.014Z,17.12
2019-04-21T19:35:47.637Z,15.60
2019-04-21T19:38:22.629Z,14.70
2019-04-21T19:40:59.258Z,13.50
2019-04-21T19:43:36.982Z,12.45
2019-04-21T19:46:02.940Z,9.65
2019-04-21T19:48:34.525Z,8.90
2019-04-21T19:51:01.617Z,8.60
2019-04-21T19:53:32.931Z,7.50
2019-04-21T19:55:44.133Z,8.30
2019-04-21T19:58:12.721Z,8.00
2019-04-21T20:00:42.181Z,8.10
2019-04-21T20:03:10.583Z,8.10
2019-04-21T20:05:43.237Z,8.00
2019-04-21T20:08:23.429Z,7.67
2019-04-21T20:10:59.350Z,7.23
2019-04-21T20:13:42.138Z,6.65
2019-04-21T20:15:58.369Z,5.70
2019-04-21T20:18:21.262Z,5.22
2019-04-21T20:20:40.831Z,5.10
2019-04-21T20:23:15.641Z,5.08
2019-04-21T20:25:43.692Z,4.65
2019-04-21T20:28:15.678Z,4.70
2019-04-21T20:31:00.713Z,4.60
2019-04-21T20:35:55.880Z,5.00
2019-04-21T20:38:19.135Z,4.78
2019-04-21T20:40:45.357Z,4.80
2019-04-21T20:43:30.949Z,4.72
2019-04-21T20:46:00.591Z,4.85
2019-04-21T20:48:17.578Z,4.60
2019-04-21T20:51:00.241Z,4.53
2019-04-21T20:53:27.409Z,4.70
2019-04-21T20:55:52.796Z,4.60
2019-04-21T20:58:24.112Z,4.83
2019-04-21T21:01:16.809Z,4.60
2019-04-21T21:03:24.726Z,4.80
2019-04-21T21:05:49.950Z,5.07
2019-04-21T21:08:29.491Z,4.67
2019-04-21T21:10:53.005Z,4.45
2019-04-21T21:13:35.079Z,5.00
2019-04-21T21:16:05.792Z,4.67
2019-04-21T21:18:44.355Z,4.70
2019-04-21T21:20:54.103Z,4.40
2019-04-21T21:23:14.535Z,4.30
2019-04-21T21:26:01.995Z,4.50
2019-04-21T21:28:16.927Z,4.60
2019-04-21T21:30:52.914Z,4.60
2019-04-21T21:33:27.598Z,4.58
2019-04-21T21:35:46.607Z,4.45
2019-04-21T21:38:28.408Z,4.55
2019-04-21T21:40:45.537Z,4.40
2019-04-21T21:43:10.717Z,4.40
2019-04-21T21:45:40.076Z,4.45
2019-04-21T21:48:21.762Z,4.10
2019-04-21T21:50:45.705Z,4.50
2019-04-21T21:53:13.002Z,4.40
2019-04-21T21:55:35.899Z,4.30
2019-04-21T21:58:06.397Z,4.37
2019-04-21T22:00:37.998Z,4.30
2019-04-21T22:03:14.965Z,4.10
2019-04-21T22:05:48.253Z,4.30
2019-04-21T22:08:04.868Z,3.80
2019-04-21T22:10:32.889Z,4.20
2019-04-21T22:13:07.176Z,4.17
2019-04-21T22:15:33.713Z,3.95
2019-04-21T22:18:16.780Z,3.80
2019-04-21T22:20:48.613Z,4.10
2019-04-21T22:23:07.294Z,4.20
2019-04-21T22:25:32.033Z,4.10
2019-04-21T22:27:59.920Z,3.90
2019-04-21T22:30:36.260Z,3.98
2019-04-21T22:33:16.260Z,3.90
2019-04-21T22:36:02.232Z,3.80
2019-04-21T22:38:38.609Z,4.30
2019-04-21T22:41:06.021Z,4.23
2019-04-21T22:43:29.223Z,4.00
2019-04-21T22:45:53.690Z,4.10
2019-04-21T22:48:26.270Z,4.50
2019-04-21T22:50:52.711Z,4.62
2019-04-21T22:53:21.731Z,4.55
2019-04-21T22:56:00.375Z,3.85
2019-04-21T22:58:25.669Z,4.10
2019-04-21T23:00:56.103Z,4.33
2019-04-21T23:03:24.239Z,4.50
2019-04-21T23:05:53.522Z,4.80
2019-04-21T23:08:26.630Z,4.20
2019-04-21T23:11:00.889Z,4.10
2019-04-21T23:13:25.939Z,4.40
2019-04-21T23:15:57.639Z,4.70
2019-04-21T23:18:40.034Z,4.10
2019-04-21T23:21:10.468Z,4.35
2019-04-21T23:23:45.085Z,4.17
2019-04-21T23:26:17.412Z,4.30
2019-04-21T23:28:45.518Z,4.08
2019-04-21T23:31:12.470Z,4.20
2019-04-21T23:33:25.733Z,4.40
2019-04-21T23:36:02.660Z,4.10
2019-04-21T23:38:29.137Z,4.50
2019-04-21T23:40:58.222Z,4.10
2019-04-21T23:43:30.045Z,4.30
2019-04-21T23:46:00.789Z,4.30
2019-04-21T23:48:43.824Z,4.50
2019-04-21T23:51:13.899Z,4.33
2019-04-21T23:53:31.077Z,4.40
2019-04-21T23:56:20.044Z,4.10
2019-04-21T23:58:54.925Z,4.42
